Huvudsida
METAR-TAF:

METAR-TAF

Flygplatser :

Kuwaits internationella flygplats

Kuwait, Kuwait

latitud: 29-13N, longitud: 047-59E, höjd: 55 m

Aktuellt väderrapport

Denna rapport gjordes för 46 minuter sedan, klockan 11:00 UTC
Vind 14 kt från nord
Temperatur 42°C
Fuktighet 11%
Tryck 1006 hPa
Sikt 10 km eller mer
Inga moln under 1 500 m eller inga cumulonimbus

METAR: OKBK 251100Z 35014KT CAVOK 42/05 Q1006 NOSIG

Tid: 14:46 (11:46 UTC)

Väderprognos

Denna rapport gjordes för 1 timme och 1 minuter sedan, klockan 10:45 UTC
Prognos gäller från 25 kl. 12 UTC till 26 kl. 18 UTC
Vind 10 kt från nord i byarna ända upp till 20 kt
Sikt: 7000 m
Klar himmel
Temporärt
från 25 kl. 12 UTC till 25 kl. 15 UTC
Sikt: 4000 m
högt damm drev

TAF: OKBK 251045Z 2512/2618 35010G20KT 7000 SKC TEMPO 2512/2515 4000 BLDU

Aktuella väderrapporter och prognoser från 4000 flygplatser (METAR- och TAF-rapporter).

De tillgängliga stationerna syns som gula och röda prickar på kartan.

För musen över prickarna för att se namnen på stationerna.

Klicka sedan för att få väderrapporter och prognoser.

För att ändra kartan: Klicka på de gröna knapparna med ett svart kors på för att zooma in; den gröna knappen med ett streck på för att zooma ut; eller på de gröna pilarna för angränsande kartor.


METAR-TAF: